createdAt,value
2024-03-12T00:00:47.568Z,24.30
2024-03-12T00:03:16.504Z,23.65
2024-03-12T00:05:45.404Z,24.27
2024-03-12T00:08:15.339Z,21.88
2024-03-12T00:10:44.529Z,21.55
2024-03-12T00:13:21.029Z,23.15
2024-03-12T00:15:49.569Z,22.38
2024-03-12T00:18:24.250Z,20.88
2024-03-12T00:20:53.905Z,22.00
2024-03-12T00:23:23.485Z,23.35
2024-03-12T00:25:52.426Z,22.80
2024-03-12T00:28:22.352Z,21.00
2024-03-12T00:30:51.014Z,22.15
2024-03-12T00:33:19.528Z,23.38
2024-03-12T00:35:52.499Z,22.90
2024-03-12T00:38:21.149Z,22.15
2024-03-12T00:40:53.842Z,23.08
2024-03-12T00:43:22.840Z,21.85
2024-03-12T00:45:51.347Z,21.52
2024-03-12T00:48:20.174Z,22.58
2024-03-12T00:50:49.534Z,23.27
2024-03-12T00:53:18.857Z,21.48
2024-03-12T00:55:48.656Z,20.65
2024-03-12T00:58:21.416Z,22.60
2024-03-12T01:00:54.409Z,21.90
2024-03-12T01:03:25.254Z,23.23
2024-03-12T01:05:57.572Z,24.88
2024-03-12T01:08:30.112Z,20.92
2024-03-12T01:10:59.839Z,23.27
2024-03-12T01:13:29.272Z,23.40
2024-03-12T01:16:01.273Z,23.02
2024-03-12T01:18:32.890Z,23.52
2024-03-12T01:21:04.143Z,22.00
2024-03-12T01:23:33.476Z,24.15
2024-03-12T01:26:01.926Z,22.13
2024-03-12T01:28:32.759Z,23.67
2024-03-12T01:31:03.242Z,23.92
2024-03-12T01:33:36.547Z,22.33
2024-03-12T01:36:19.820Z,23.83
2024-03-12T01:38:49.858Z,24.98
2024-03-12T01:41:18.798Z,23.23
2024-03-12T01:44:00.671Z,22.98
2024-03-12T01:46:35.688Z,21.15
2024-03-12T01:49:06.074Z,22.90
2024-03-12T01:51:34.859Z,19.73
2024-03-12T01:54:04.957Z,19.73
2024-03-12T01:56:34.069Z,21.83
2024-03-12T01:59:04.636Z,20.35
2024-03-12T02:01:38.620Z,21.48
2024-03-12T02:04:10.170Z,20.50
2024-03-12T02:06:41.825Z,21.55
2024-03-12T02:09:13.446Z,20.30
2024-03-12T02:11:42.037Z,20.50
2024-03-12T02:14:10.659Z,20.88
2024-03-12T02:16:43.223Z,18.55
2024-03-12T02:19:11.777Z,19.02
2024-03-12T02:21:40.391Z,17.88
2024-03-12T02:24:11.113Z,19.27
2024-03-12T02:26:39.999Z,19.15
2024-03-12T02:29:14.200Z,17.08
2024-03-12T02:31:44.773Z,17.83
2024-03-12T02:34:14.010Z,18.20
2024-03-12T02:36:42.548Z,18.20
2024-03-12T02:39:15.737Z,17.05
2024-03-12T02:41:50.730Z,18.70
2024-03-12T02:44:19.500Z,16.27
2024-03-12T02:46:51.614Z,16.08
2024-03-12T02:49:20.911Z,15.80
2024-03-12T02:51:49.575Z,16.40
2024-03-12T02:54:19.571Z,15.50
2024-03-12T02:56:50.398Z,17.50
2024-03-12T02:59:18.938Z,17.15
2024-03-12T03:01:47.391Z,18.88
2024-03-12T03:04:15.971Z,18.02
2024-03-12T03:06:45.651Z,18.63
2024-03-12T03:09:14.204Z,19.13
2024-03-12T03:11:46.819Z,19.60
2024-03-12T03:14:17.856Z,19.50
2024-03-12T03:16:46.523Z,19.77
2024-03-12T03:19:15.133Z,18.83
2024-03-12T03:21:43.793Z,18.25
2024-03-12T03:24:12.254Z,17.73
2024-03-12T03:26:40.959Z,17.80
2024-03-12T03:29:15.000Z,18.45
2024-03-12T03:31:44.440Z,17.63
2024-03-12T03:34:15.749Z,17.20
2024-03-12T03:36:46.701Z,16.52
2024-03-12T03:39:17.078Z,17.90
2024-03-12T03:41:45.588Z,17.42
2024-03-12T03:44:15.477Z,17.15
2024-03-12T03:46:44.222Z,18.88
2024-03-12T03:49:12.781Z,18.92
2024-03-12T03:51:41.844Z,16.10
2024-03-12T03:54:13.705Z,17.80
2024-03-12T03:56:42.975Z,17.02
2024-03-12T03:59:14.500Z,17.65
2024-03-12T04:01:45.606Z,17.45
2024-03-12T04:04:16.882Z,17.38
2024-03-12T04:06:50.355Z,16.85
2024-03-12T04:09:22.977Z,17.83
2024-03-12T04:11:51.477Z,16.83
2024-03-12T04:14:26.278Z,15.90
2024-03-12T04:16:56.420Z,16.45
2024-03-12T04:19:25.644Z,15.80
2024-03-12T04:21:54.236Z,17.60
2024-03-12T04:24:27.058Z,16.40
2024-03-12T04:26:57.849Z,16.15
2024-03-12T04:29:26.861Z,16.92
2024-03-12T04:31:57.570Z,14.98
2024-03-12T04:34:26.038Z,16.65
2024-03-12T04:36:54.858Z,15.65
2024-03-12T04:39:33.134Z,16.15
2024-03-12T04:42:03.240Z,16.38
2024-03-12T04:44:32.685Z,16.10
2024-03-12T04:47:02.973Z,16.20
2024-03-12T04:49:31.682Z,17.50
2024-03-12T04:52:02.953Z,17.35
2024-03-12T04:54:31.698Z,14.48
2024-03-12T04:57:02.989Z,16.30
2024-03-12T04:59:33.491Z,16.25
2024-03-12T05:02:08.301Z,14.95
2024-03-12T05:04:36.972Z,15.20
2024-03-12T05:07:05.919Z,15.07
2024-03-12T05:09:35.401Z,15.35
2024-03-12T05:12:04.194Z,15.13
2024-03-12T05:14:34.938Z,15.43
2024-03-12T05:17:10.763Z,14.80
2024-03-12T05:19:39.395Z,14.68
2024-03-12T05:22:08.378Z,16.23
2024-03-12T05:24:37.008Z,14.55
2024-03-12T05:27:05.621Z,15.05
2024-03-12T05:29:37.991Z,14.23
2024-03-12T05:32:18.803Z,14.27
2024-03-12T05:34:49.282Z,14.80
2024-03-12T05:37:30.078Z,13.43
2024-03-12T05:40:18.378Z,15.02
2024-03-12T05:43:01.672Z,14.57
2024-03-12T05:45:48.310Z,13.05
2024-03-12T05:48:18.696Z,14.02
2024-03-12T05:50:52.607Z,14.27
2024-03-12T05:53:25.412Z,12.98
2024-03-12T05:55:57.060Z,14.10
2024-03-12T05:58:26.289Z,13.50
2024-03-12T06:00:54.816Z,15.10
2024-03-12T06:03:24.841Z,12.77
2024-03-12T06:05:53.475Z,14.13
2024-03-12T06:08:22.920Z,14.48
2024-03-12T06:10:51.727Z,12.93
2024-03-12T06:13:21.313Z,12.52
2024-03-12T06:15:50.796Z,13.13
2024-03-12T06:18:21.143Z,13.32
2024-03-12T06:20:52.126Z,13.23
2024-03-12T06:23:22.476Z,12.85
2024-03-12T06:25:51.109Z,14.05
2024-03-12T06:28:22.781Z,14.27
2024-03-12T06:30:51.869Z,12.27
2024-03-12T06:33:20.565Z,12.82
2024-03-12T06:35:49.654Z,13.02
2024-03-12T06:38:22.257Z,13.48
2024-03-12T06:40:52.139Z,12.52
2024-03-12T06:43:21.374Z,13.30
2024-03-12T06:45:51.002Z,12.45
2024-03-12T06:48:20.608Z,12.40
2024-03-12T06:50:49.565Z,12.38
2024-03-12T06:53:20.083Z,11.77
2024-03-12T06:55:48.941Z,12.38
2024-03-12T06:58:26.407Z,12.48
2024-03-12T07:00:57.340Z,11.77
2024-03-12T07:03:29.128Z,12.55
2024-03-12T07:05:57.965Z,10.65
2024-03-12T07:08:40.202Z,11.68
2024-03-12T07:11:11.760Z,11.85
2024-03-12T07:13:43.994Z,11.60
2024-03-12T07:16:12.520Z,11.15
2024-03-12T07:18:41.269Z,12.07
2024-03-12T07:21:15.363Z,11.88
2024-03-12T07:23:48.063Z,11.75
2024-03-12T07:26:17.945Z,11.02
2024-03-12T07:28:46.589Z,11.68
2024-03-12T07:31:15.565Z,12.32
2024-03-12T07:33:44.872Z,12.10
2024-03-12T07:36:18.172Z,12.05
2024-03-12T07:38:48.260Z,11.68
2024-03-12T07:41:16.749Z,12.18
2024-03-12T07:43:46.086Z,11.82
2024-03-12T07:46:15.787Z,12.10
2024-03-12T07:48:44.431Z,12.85
2024-03-12T07:51:15.010Z,12.60
2024-03-12T07:53:43.791Z,12.95
2024-03-12T07:56:15.444Z,10.95
2024-03-12T07:58:47.469Z,12.45
2024-03-12T08:01:19.686Z,12.82
2024-03-12T08:03:48.356Z,12.32
2024-03-12T08:06:16.902Z,12.52
2024-03-12T08:08:45.588Z,13.30
2024-03-12T08:11:23.003Z,11.88
2024-03-12T08:13:51.599Z,11.10
2024-03-12T08:16:22.567Z,13.27
2024-03-12T08:18:51.245Z,11.32
2024-03-12T08:21:19.845Z,12.10
2024-03-12T08:23:52.361Z,12.00
2024-03-12T08:26:24.673Z,12.30
2024-03-12T08:28:57.089Z,14.80
2024-03-12T08:31:32.772Z,12.13
2024-03-12T08:34:05.510Z,12.45
2024-03-12T08:36:36.283Z,13.77
2024-03-12T08:39:05.880Z,11.52
2024-03-12T08:41:38.826Z,12.68
2024-03-12T08:44:14.976Z,11.93
2024-03-12T08:46:43.680Z,13.98
2024-03-12T08:49:16.945Z,14.07
2024-03-12T08:51:46.408Z,13.32
2024-03-12T08:54:18.081Z,12.40
2024-03-12T08:56:49.834Z,13.90
2024-03-12T08:59:19.215Z,14.18
2024-03-12T09:01:48.157Z,12.43
2024-03-12T09:04:19.251Z,13.30
2024-03-12T09:06:47.879Z,14.73
2024-03-12T09:09:19.688Z,13.73
2024-03-12T09:11:52.784Z,13.60
2024-03-12T09:14:22.548Z,12.27
2024-03-12T09:16:51.324Z,13.45
2024-03-12T09:19:22.610Z,12.38
2024-03-12T09:21:51.661Z,12.38
2024-03-12T09:24:20.342Z,12.75
2024-03-12T09:26:51.737Z,12.38
2024-03-12T09:29:23.684Z,12.65
2024-03-12T09:31:52.239Z,11.95
2024-03-12T09:34:25.797Z,13.43
2024-03-12T09:36:56.663Z,12.35
2024-03-12T09:39:29.237Z,12.18
2024-03-12T09:42:00.048Z,12.45
2024-03-12T09:44:28.758Z,13.15
2024-03-12T09:46:57.633Z,11.95
2024-03-12T09:49:26.359Z,13.75
2024-03-12T09:51:54.932Z,14.20
2024-03-12T09:54:25.050Z,13.23
2024-03-12T09:56:56.834Z,14.43
2024-03-12T09:59:27.124Z,13.27
2024-03-12T10:02:06.840Z,14.50
2024-03-12T10:04:36.035Z,15.52
2024-03-12T10:07:05.434Z,14.57
2024-03-12T10:09:35.349Z,16.35
2024-03-12T10:12:04.499Z,15.55
2024-03-12T10:14:38.819Z,15.23
2024-03-12T10:17:15.520Z,14.98
2024-03-12T10:19:50.306Z,14.95
2024-03-12T10:22:22.745Z,15.68
2024-03-12T10:24:53.131Z,16.92
2024-03-12T10:27:24.496Z,15.73
2024-03-12T10:29:54.669Z,15.75
2024-03-12T10:32:30.131Z,16.52
2024-03-12T10:35:00.338Z,15.93
2024-03-12T10:37:35.449Z,15.80
2024-03-12T10:40:20.284Z,15.20
2024-03-12T10:42:54.693Z,15.73
2024-03-12T10:45:25.765Z,13.52
2024-03-12T10:47:55.796Z,15.57
2024-03-12T10:50:28.996Z,15.70
2024-03-12T10:52:58.362Z,16.05
2024-03-12T10:55:32.116Z,14.73
2024-03-12T10:58:02.099Z,16.25
2024-03-12T11:00:32.928Z,16.23
2024-03-12T11:03:02.594Z,15.00
2024-03-12T11:05:34.020Z,16.70
2024-03-12T11:08:07.260Z,16.63
2024-03-12T11:10:38.383Z,16.73
2024-03-12T11:13:08.723Z,16.58
2024-03-12T11:15:41.547Z,17.83
2024-03-12T11:18:10.815Z,18.27
2024-03-12T11:20:49.535Z,18.23
2024-03-12T11:23:18.264Z,17.35
2024-03-12T11:25:49.974Z,16.70
2024-03-12T11:28:21.734Z,17.45
2024-03-12T11:31:05.213Z,17.02
2024-03-12T11:33:50.741Z,17.40
2024-03-12T11:36:25.627Z,15.60
2024-03-12T11:38:57.581Z,17.73
2024-03-12T11:41:27.405Z,16.48
2024-03-12T11:43:56.093Z,17.33
2024-03-12T11:46:41.151Z,17.15
2024-03-12T11:49:35.183Z,17.95
2024-03-12T11:52:04.116Z,18.23
2024-03-12T11:54:44.113Z,18.63
2024-03-12T11:57:21.698Z,18.33
2024-03-12T11:59:50.452Z,19.75
2024-03-12T12:02:24.694Z,19.75
2024-03-12T12:04:59.789Z,18.75
2024-03-12T12:07:29.454Z,19.13
2024-03-12T12:10:02.890Z,20.23
2024-03-12T12:12:36.660Z,21.10
2024-03-12T12:15:12.518Z,20.95
2024-03-12T12:17:41.482Z,19.95
2024-03-12T12:20:17.974Z,21.25
2024-03-12T12:22:48.528Z,19.40
2024-03-12T12:25:27.203Z,21.88
2024-03-12T12:28:00.251Z,21.73
2024-03-12T12:30:28.895Z,22.30
2024-03-12T12:32:57.990Z,21.95
2024-03-12T12:35:29.485Z,23.13
2024-03-12T12:37:59.509Z,23.02
2024-03-12T12:40:28.583Z,22.38
2024-03-12T12:42:57.206Z,23.15
2024-03-12T12:45:27.857Z,23.70
2024-03-12T12:47:56.580Z,23.33
2024-03-12T12:50:33.239Z,23.73
2024-03-12T12:53:03.245Z,24.10
2024-03-12T12:55:32.836Z,26.52
2024-03-12T12:58:04.469Z,24.70
2024-03-12T13:00:37.614Z,27.20
2024-03-12T13:03:13.851Z,25.13
2024-03-12T13:05:45.647Z,25.05
2024-03-12T13:08:23.773Z,27.02
2024-03-12T13:11:06.134Z,26.02
2024-03-12T13:13:36.200Z,26.30
2024-03-12T13:16:20.134Z,26.55
2024-03-12T13:18:49.598Z,27.58
2024-03-12T13:21:21.422Z,26.52
2024-03-12T13:23:51.698Z,25.25
2024-03-12T13:26:21.592Z,24.70
2024-03-12T13:28:51.007Z,23.77
2024-03-12T13:31:19.994Z,24.95
2024-03-12T13:33:52.310Z,26.05
2024-03-12T13:36:26.511Z,24.73
2024-03-12T13:38:57.178Z,25.55
2024-03-12T13:41:27.633Z,25.23
2024-03-12T13:43:58.938Z,25.80
2024-03-12T13:46:34.070Z,25.08
2024-03-12T13:49:12.994Z,26.15
2024-03-12T13:51:44.738Z,26.77
2024-03-12T13:54:16.265Z,24.67
2024-03-12T13:56:47.438Z,25.58
2024-03-12T13:59:18.363Z,24.95
2024-03-12T14:01:49.009Z,24.35
2024-03-12T14:04:18.730Z,24.40
2024-03-12T14:06:49.586Z,23.83
2024-03-12T14:09:18.896Z,25.77
2024-03-12T14:11:47.754Z,23.83
2024-03-12T14:14:16.453Z,23.25
2024-03-12T14:16:45.458Z,24.33
2024-03-12T14:19:14.016Z,23.48
2024-03-12T14:21:43.002Z,22.95
2024-03-12T14:24:15.383Z,25.10
2024-03-12T14:26:47.538Z,24.67
2024-03-12T14:29:18.969Z,25.63
2024-03-12T14:31:49.135Z,25.00
2024-03-12T14:34:17.688Z,25.38
2024-03-12T14:36:46.966Z,27.73
2024-03-12T14:39:16.992Z,26.58
2024-03-12T14:41:51.866Z,24.85
2024-03-12T14:44:22.331Z,25.63
2024-03-12T14:46:51.322Z,25.38
2024-03-12T14:49:19.971Z,28.35
2024-03-12T14:51:49.215Z,26.75
2024-03-12T14:54:19.249Z,26.13
2024-03-12T14:56:47.903Z,25.80
2024-03-12T14:59:17.009Z,23.13
2024-03-12T15:01:46.372Z,24.77
2024-03-12T15:04:14.946Z,24.10
2024-03-12T15:06:44.491Z,24.95
2024-03-12T15:09:15.011Z,25.15
2024-03-12T15:11:47.894Z,23.58
2024-03-12T15:14:17.031Z,21.13
2024-03-12T15:16:47.316Z,21.33
2024-03-12T15:19:20.176Z,20.17
2024-03-12T15:21:48.917Z,20.48
2024-03-12T15:24:19.212Z,20.48
2024-03-12T15:26:58.502Z,19.13
2024-03-12T15:29:29.377Z,18.40
2024-03-12T15:31:57.945Z,17.88
2024-03-12T15:34:26.456Z,14.77
2024-03-12T15:36:55.053Z,15.40
2024-03-12T15:39:23.880Z,14.85
2024-03-12T15:41:56.837Z,11.60
2024-03-12T15:44:25.504Z,11.23
2024-03-12T15:46:57.259Z,10.43
2024-03-12T15:49:25.934Z,9.32
2024-03-12T15:51:55.215Z,9.95
2024-03-12T15:54:26.174Z,9.27
2024-03-12T15:56:55.991Z,9.63
2024-03-12T15:59:24.471Z,8.77
2024-03-12T16:01:55.433Z,8.90
2024-03-12T16:04:25.722Z,9.63
2024-03-12T16:06:54.553Z,9.00
2024-03-12T16:09:23.926Z,9.05
2024-03-12T16:11:53.243Z,9.05
2024-03-12T16:14:23.245Z,8.10
2024-03-12T16:16:53.887Z,8.60
2024-03-12T16:19:23.221Z,8.77
2024-03-12T16:21:55.616Z,9.85
2024-03-12T16:24:24.278Z,10.95
2024-03-12T16:26:55.087Z,10.93
2024-03-12T16:29:27.249Z,11.07
2024-03-12T16:31:56.003Z,10.20
2024-03-12T16:34:27.944Z,9.30
2024-03-12T16:36:57.918Z,10.68
2024-03-12T16:39:27.293Z,12.75
2024-03-12T16:41:58.255Z,11.38
2024-03-12T16:44:28.382Z,11.82
2024-03-12T16:47:06.251Z,12.23
2024-03-12T16:49:38.460Z,10.73
2024-03-12T16:52:07.766Z,11.65
2024-03-12T16:54:38.036Z,10.73
2024-03-12T16:57:07.394Z,9.95
2024-03-12T16:59:37.845Z,10.57
2024-03-12T17:02:13.864Z,12.07
2024-03-12T17:04:45.039Z,13.13
2024-03-12T17:07:17.079Z,12.43
2024-03-12T17:09:46.068Z,12.65
2024-03-12T17:12:15.507Z,12.45
2024-03-12T17:14:47.681Z,11.98
2024-03-12T17:17:16.919Z,12.80
2024-03-12T17:19:45.612Z,12.68
2024-03-12T17:22:16.356Z,12.07
2024-03-12T17:24:45.216Z,10.80
2024-03-12T17:27:14.804Z,10.98
2024-03-12T17:29:46.506Z,12.52
2024-03-12T17:32:17.770Z,10.65
2024-03-12T17:34:51.129Z,10.13
2024-03-12T17:37:21.605Z,10.45
2024-03-12T17:39:52.607Z,9.77
2024-03-12T17:42:21.965Z,9.70
2024-03-12T17:44:54.387Z,8.73
2024-03-12T17:47:23.104Z,9.23
2024-03-12T17:49:53.108Z,9.02
2024-03-12T17:52:22.084Z,8.88
2024-03-12T17:54:50.992Z,9.30
2024-03-12T17:57:19.873Z,9.43
2024-03-12T17:59:50.854Z,8.63
2024-03-12T18:02:20.985Z,7.65
2024-03-12T18:04:50.052Z,8.30
2024-03-12T18:07:26.361Z,6.65
2024-03-12T18:09:56.545Z,7.30
2024-03-12T18:12:25.322Z,8.00
2024-03-12T18:14:54.996Z,7.47
2024-03-12T18:17:25.042Z,7.80
2024-03-12T18:19:53.620Z,8.85
2024-03-12T18:22:22.990Z,7.70
2024-03-12T18:24:53.757Z,8.70
2024-03-12T18:27:23.361Z,9.23
2024-03-12T18:29:55.588Z,9.65
2024-03-12T18:32:25.912Z,9.52
2024-03-12T18:34:54.674Z,8.80
2024-03-12T18:37:23.326Z,9.48
2024-03-12T18:39:51.945Z,9.68
2024-03-12T18:42:21.359Z,10.48
2024-03-12T18:44:54.709Z,11.45
2024-03-12T18:47:25.402Z,13.13
2024-03-12T18:49:54.244Z,12.52
2024-03-12T18:52:24.888Z,14.13
2024-03-12T18:54:55.023Z,12.30
2024-03-12T18:57:27.532Z,13.40
2024-03-12T18:59:56.633Z,12.13
2024-03-12T19:02:28.387Z,11.63
2024-03-12T19:04:59.536Z,11.75
2024-03-12T19:07:28.462Z,13.00
2024-03-12T19:10:00.083Z,12.38
2024-03-12T19:12:30.160Z,11.38
2024-03-12T19:14:59.465Z,12.73
2024-03-12T19:17:30.540Z,11.63
2024-03-12T19:20:01.708Z,11.25
2024-03-12T19:22:34.572Z,10.90
2024-03-12T19:25:03.383Z,9.80
2024-03-12T19:27:31.986Z,11.40
2024-03-12T19:30:01.797Z,9.98
2024-03-12T19:32:33.464Z,9.95
2024-03-12T19:35:05.496Z,8.73
2024-03-12T19:37:39.819Z,9.75
2024-03-12T19:40:13.718Z,9.40
2024-03-12T19:42:45.190Z,9.80
2024-03-12T19:45:16.386Z,9.85
2024-03-12T19:47:47.059Z,9.75
2024-03-12T19:50:17.037Z,8.93
2024-03-12T19:52:47.679Z,9.02
2024-03-12T19:55:20.067Z,10.32
2024-03-12T19:57:51.423Z,9.75
2024-03-12T20:00:20.910Z,8.60
2024-03-12T20:02:51.111Z,10.32
2024-03-12T20:05:22.204Z,8.40
2024-03-12T20:07:52.278Z,8.80
2024-03-12T20:10:21.722Z,8.55
2024-03-12T20:12:53.918Z,9.32
2024-03-12T20:15:24.819Z,10.13
2024-03-12T20:17:59.694Z,10.00
2024-03-12T20:20:33.942Z,9.27
2024-03-12T20:23:02.957Z,9.20
2024-03-12T20:25:32.800Z,9.68
2024-03-12T20:28:01.813Z,9.50
2024-03-12T20:30:31.044Z,9.55
2024-03-12T20:33:03.914Z,10.75
2024-03-12T20:35:33.582Z,10.40
2024-03-12T20:38:03.672Z,8.65
2024-03-12T20:40:33.906Z,10.73
2024-03-12T20:43:03.156Z,10.35
2024-03-12T20:45:31.922Z,10.25
2024-03-12T20:48:11.783Z,10.65
2024-03-12T20:50:43.794Z,9.65
2024-03-12T20:53:12.402Z,11.10
2024-03-12T20:55:41.231Z,10.57
2024-03-12T20:58:15.025Z,10.77
2024-03-12T21:00:45.286Z,11.90
2024-03-12T21:03:15.588Z,12.20
2024-03-12T21:05:44.081Z,11.88
2024-03-12T21:08:17.342Z,12.07
2024-03-12T21:10:50.673Z,13.75
2024-03-12T21:13:19.460Z,11.93
2024-03-12T21:15:59.903Z,11.60
2024-03-12T21:18:31.523Z,10.73
2024-03-12T21:21:03.097Z,11.50
2024-03-12T21:23:31.695Z,10.65
2024-03-12T21:26:00.720Z,10.48
2024-03-12T21:28:30.586Z,11.25
2024-03-12T21:30:59.284Z,10.48
2024-03-12T21:33:28.543Z,11.55
2024-03-12T21:35:58.519Z,10.88
2024-03-12T21:38:26.908Z,9.52
2024-03-12T21:40:55.634Z,10.82
2024-03-12T21:43:24.736Z,9.27
2024-03-12T21:45:55.093Z,9.93
2024-03-12T21:48:25.136Z,9.93
2024-03-12T21:50:55.987Z,9.00
2024-03-12T21:53:27.928Z,10.60
2024-03-12T21:55:57.538Z,9.88
2024-03-12T21:58:27.029Z,9.98
2024-03-12T22:00:55.926Z,10.40
2024-03-12T22:03:27.513Z,11.30
2024-03-12T22:05:56.478Z,9.52
2024-03-12T22:08:28.872Z,9.80
2024-03-12T22:10:58.356Z,9.50
2024-03-12T22:13:36.159Z,9.70
2024-03-12T22:16:06.871Z,11.00
2024-03-12T22:18:39.037Z,10.25
2024-03-12T22:21:11.056Z,10.13
2024-03-12T22:23:42.305Z,9.80
2024-03-12T22:26:11.357Z,10.52
2024-03-12T22:28:40.674Z,10.63
2024-03-12T22:31:23.838Z,10.65
2024-03-12T22:33:52.721Z,8.93
2024-03-12T22:36:22.940Z,10.00
2024-03-12T22:38:54.194Z,9.60
2024-03-12T22:41:22.878Z,9.68
2024-03-12T22:43:54.053Z,9.55
2024-03-12T22:46:23.753Z,8.73
2024-03-12T22:48:53.614Z,9.38
2024-03-12T22:51:22.882Z,9.15
2024-03-12T22:53:53.030Z,10.07
2024-03-12T22:56:24.004Z,10.18
2024-03-12T22:58:53.448Z,9.90
2024-03-12T23:01:25.973Z,9.85
2024-03-12T23:03:56.789Z,9.48
2024-03-12T23:06:26.315Z,8.73
2024-03-12T23:08:56.743Z,10.48
2024-03-12T23:11:29.449Z,10.93
2024-03-12T23:13:59.964Z,9.52
2024-03-12T23:16:31.065Z,10.88
2024-03-12T23:19:02.129Z,10.82
2024-03-12T23:21:31.689Z,10.10
2024-03-12T23:24:01.657Z,10.85
2024-03-12T23:26:33.273Z,10.38
2024-03-12T23:29:04.236Z,10.23
2024-03-12T23:31:32.951Z,10.52
2024-03-12T23:34:01.649Z,10.20
2024-03-12T23:36:31.551Z,10.73
2024-03-12T23:39:03.887Z,10.32
2024-03-12T23:41:32.719Z,10.32
2024-03-12T23:44:01.337Z,11.02
2024-03-12T23:46:32.830Z,10.52
2024-03-12T23:49:03.642Z,10.50
2024-03-12T23:51:34.360Z,10.23
2024-03-12T23:54:07.505Z,10.15
2024-03-12T23:56:41.852Z,10.32
2024-03-12T23:59:12.940Z,9.77
